Time;durP1;ratioP1;P1;durP2;ratioP2;P2;SDS_P1;SDS_P2;PMS_P1;PMS_P2;Temp;Humidity;BMP_temperature;BMP_pressure;BME280_temperature;BME280_humidity;BME280_pressure;Samples;Min_cycle;Max_cycle;Signal;HPM_P1;HPM_P2
2021/03/06 00:01:23;;;;;;;9.75;4.38;;;1.60;99.90;;;;;;4886349;29;20056;-83
2021/03/06 00:04:08;;;;;;;12.67;4.50;;;1.50;99.90;;;;;;4883229;29;20063;-81
2021/03/06 00:06:42;;;;;;;9.60;4.70;;;1.40;99.90;;;;;;4904375;29;20391;-81
2021/03/06 00:09:12;;;;;;;10.53;4.53;;;1.40;99.90;;;;;;4877868;29;20043;-82
2021/03/06 00:11:40;;;;;;;12.10;4.00;;;1.40;99.90;;;;;;4884771;29;20057;-81
2021/03/06 00:14:11;;;;;;;10.23;4.00;;;1.30;99.90;;;;;;4873675;29;20067;-83
2021/03/06 00:16:44;;;;;;;9.57;4.03;;;1.40;99.90;;;;;;4884922;29;20126;-80
2021/03/06 00:19:17;;;;;;;10.70;4.20;;;1.40;99.90;;;;;;4900361;29;20053;-82
2021/03/06 00:21:46;;;;;;;13.17;4.37;;;1.40;99.90;;;;;;4881337;29;20063;-82
2021/03/06 00:24:16;;;;;;;11.98;4.57;;;1.40;99.90;;;;;;4879987;29;20063;-83
2021/03/06 00:26:44;;;;;;;10.60;4.27;;;1.20;99.90;;;;;;4871584;29;20049;-81
2021/03/06 00:29:15;;;;;;;9.85;4.70;;;1.00;99.90;;;;;;4874943;29;20057;-80
2021/03/06 00:31:53;;;;;;;11.07;4.50;;;0.70;99.90;;;;;;4891870;29;20071;-82
2021/03/06 00:34:41;;;;;;;11.40;4.77;;;0.50;99.90;;;;;;4886495;29;20069;-83
2021/03/06 00:37:12;;;;;;;9.47;3.93;;;0.70;99.90;;;;;;4880738;29;20057;-82
2021/03/06 00:39:40;;;;;;;10.83;4.33;;;0.90;99.90;;;;;;4870391;29;20064;-82
2021/03/06 00:42:08;;;;;;;11.40;4.13;;;1.10;99.90;;;;;;4907466;29;20103;-80
2021/03/06 00:44:36;;;;;;;10.15;4.25;;;1.20;99.90;;;;;;4883573;29;20033;-81
2021/03/06 00:47:06;;;;;;;10.87;4.10;;;1.40;99.90;;;;;;4879899;29;20059;-82
2021/03/06 00:49:37;;;;;;;9.37;3.97;;;1.20;99.90;;;;;;4893838;29;20064;-79
2021/03/06 00:52:13;;;;;;;11.77;4.20;;;1.20;99.90;;;;;;4890569;29;20064;-80
2021/03/06 00:54:46;;;;;;;11.03;3.90;;;1.20;99.90;;;;;;4856898;29;20064;-79
2021/03/06 00:57:16;;;;;;;9.83;4.60;;;1.20;99.90;;;;;;4876077;29;20053;-80
2021/03/06 00:59:45;;;;;;;8.20;3.70;;;1.20;99.90;;;;;;4894312;29;20057;-81
2021/03/06 01:02:18;;;;;;;9.67;4.10;;;1.10;99.90;;;;;;4875940;29;20055;-80
2021/03/06 01:04:53;;;;;;;11.53;4.20;;;1.10;99.90;;;;;;4877759;29;20068;-81
2021/03/06 01:07:22;;;;;;;13.40;4.50;;;1.00;99.90;;;;;;4867808;29;20053;-81
2021/03/06 01:09:50;;;;;;;10.23;5.17;;;1.00;99.90;;;;;;4880929;29;20048;-81
2021/03/06 01:12:18;;;;;;;9.70;4.57;;;1.00;99.90;;;;;;4920021;29;20045;-80
2021/03/06 01:14:49;;;;;;;10.40;4.90;;;0.90;99.90;;;;;;4892301;29;20053;-80
2021/03/06 01:17:18;;;;;;;7.50;3.97;;;0.80;99.90;;;;;;4888495;29;20402;-80
2021/03/06 01:19:46;;;;;;;10.45;4.53;;;0.70;99.90;;;;;;4873447;29;20048;-80
2021/03/06 01:22:13;;;;;;;13.50;4.77;;;0.60;99.90;;;;;;4875479;29;20361;-80
2021/03/06 01:24:42;;;;;;;11.90;4.80;;;0.60;99.90;;;;;;4872766;29;20067;-78
2021/03/06 01:27:10;;;;;;;10.40;4.20;;;0.60;99.90;;;;;;4877547;29;20053;-79
2021/03/06 01:29:37;;;;;;;8.53;3.97;;;0.60;99.90;;;;;;4871807;29;20068;-80
2021/03/06 01:32:05;;;;;;;13.33;4.80;;;0.50;99.90;;;;;;4876745;29;20053;-80
2021/03/06 01:34:34;;;;;;;12.87;5.07;;;0.50;99.90;;;;;;4872180;29;20057;-80
2021/03/06 01:37:02;;;;;;;11.07;4.47;;;0.50;99.90;;;;;;4859143;29;20054;-80
2021/03/06 01:39:30;;;;;;;10.97;4.30;;;0.50;99.90;;;;;;4867658;29;20063;-80
2021/03/06 01:42:00;;;;;;;12.43;4.47;;;0.40;99.90;;;;;;4872299;29;20059;-81
2021/03/06 01:44:28;;;;;;;8.03;3.77;;;0.50;99.90;;;;;;4885251;29;20061;-81
2021/03/06 01:46:59;;;;;;;10.17;4.07;;;0.60;99.90;;;;;;4895295;29;20053;-81
2021/03/06 01:49:31;;;;;;;9.30;3.63;;;0.50;99.90;;;;;;4872448;29;20047;-81
2021/03/06 01:52:00;;;;;;;11.73;3.90;;;0.60;99.90;;;;;;4896405;29;20041;-81
2021/03/06 01:54:30;;;;;;;10.67;4.37;;;0.50;99.90;;;;;;4875243;29;20068;-83
2021/03/06 01:57:01;;;;;;;12.00;4.10;;;0.50;99.90;;;;;;4881876;29;20068;-83
2021/03/06 01:59:30;;;;;;;8.20;3.53;;;0.50;99.90;;;;;;4881160;29;20060;-82
2021/03/06 02:01:58;;;;;;;9.95;4.15;;;0.50;99.90;;;;;;4883498;29;20063;-81
2021/03/06 02:04:32;;;;;;;7.00;3.60;;;0.50;99.90;;;;;;4911047;29;20059;-81
2021/03/06 02:07:03;;;;;;;11.73;3.87;;;0.60;99.90;;;;;;4880911;29;20049;-80
2021/03/06 02:09:31;;;;;;;8.03;3.50;;;0.50;99.90;;;;;;4879154;29;20072;-80
2021/03/06 02:12:14;;;;;;;9.97;3.50;;;0.40;99.90;;;;;;4870390;29;20061;-79
2021/03/06 02:15:03;;;;;;;9.17;3.53;;;0.50;99.90;;;;;;4891638;29;20061;-80
2021/03/06 02:17:41;;;;;;;8.93;3.97;;;0.40;99.90;;;;;;4854658;29;20059;-80
2021/03/06 02:20:27;;;;;;;11.30;3.20;;;0.50;99.90;;;;;;4872731;29;20063;-80
2021/03/06 02:23:27;;;;;;;7.97;3.27;;;0.50;99.90;;;;;;4880314;29;20056;-80
2021/03/06 02:26:19;;;;;;;6.73;3.37;;;0.40;99.90;;;;;;4851333;29;20063;-81
